sensor_id;sensor_type;location;lat;lon;timestamp;pressure;altitude;pressure_sealevel;temperature
20736;BMP180;10528;52.124;5.196;2023-07-09T00:02:02;101679.00;;;30.40
20736;BMP180;10528;52.124;5.196;2023-07-09T00:04:29;101672.00;;;30.30
20736;BMP180;10528;52.124;5.196;2023-07-09T00:07:02;101665.00;;;30.30
20736;BMP180;10528;52.124;5.196;2023-07-09T00:09:31;101659.00;;;30.30
20736;BMP180;10528;52.124;5.196;2023-07-09T00:11:58;101674.00;;;30.20
20736;BMP180;10528;52.124;5.196;2023-07-09T00:14:25;101678.00;;;30.20
20736;BMP180;10528;52.124;5.196;2023-07-09T00:16:52;101678.00;;;30.20
20736;BMP180;10528;52.124;5.196;2023-07-09T00:19:21;101674.00;;;30.20
20736;BMP180;10528;52.124;5.196;2023-07-09T00:21:52;101677.00;;;30.10
20736;BMP180;10528;52.124;5.196;2023-07-09T00:24:20;101676.00;;;30.10
20736;BMP180;10528;52.124;5.196;2023-07-09T00:26:48;101677.00;;;30.10
20736;BMP180;10528;52.124;5.196;2023-07-09T00:29:17;101684.00;;;30.10
20736;BMP180;10528;52.124;5.196;2023-07-09T00:31:44;101693.00;;;30.00
20736;BMP180;10528;52.124;5.196;2023-07-09T00:34:14;101689.00;;;30.00
20736;BMP180;10528;52.124;5.196;2023-07-09T00:36:42;101694.00;;;30.00
20736;BMP180;10528;52.124;5.196;2023-07-09T00:39:17;101697.00;;;29.90
20736;BMP180;10528;52.124;5.196;2023-07-09T00:41:46;101692.00;;;29.90
20736;BMP180;10528;52.124;5.196;2023-07-09T00:44:25;101696.00;;;29.90
20736;BMP180;10528;52.124;5.196;2023-07-09T00:49:37;101701.00;;;29.80
20736;BMP180;10528;52.124;5.196;2023-07-09T00:52:39;101690.00;;;29.80
20736;BMP180;10528;52.124;5.196;2023-07-09T00:55:16;101698.00;;;29.80
20736;BMP180;10528;52.124;5.196;2023-07-09T00:57:49;101697.00;;;29.70
20736;BMP180;10528;52.124;5.196;2023-07-09T01:00:31;101698.00;;;29.70
20736;BMP180;10528;52.124;5.196;2023-07-09T01:03:06;101693.00;;;29.70
20736;BMP180;10528;52.124;5.196;2023-07-09T01:05:33;101686.00;;;29.70
20736;BMP180;10528;52.124;5.196;2023-07-09T01:08:00;101688.00;;;29.70
20736;BMP180;10528;52.124;5.196;2023-07-09T01:10:28;101682.00;;;29.60
20736;BMP180;10528;52.124;5.196;2023-07-09T01:12:57;101679.00;;;29.60
20736;BMP180;10528;52.124;5.196;2023-07-09T01:15:24;101686.00;;;29.60
20736;BMP180;10528;52.124;5.196;2023-07-09T01:17:51;101689.00;;;29.60
20736;BMP180;10528;52.124;5.196;2023-07-09T01:20:21;101692.00;;;29.60
20736;BMP180;10528;52.124;5.196;2023-07-09T01:22:50;101690.00;;;29.50
20736;BMP180;10528;52.124;5.196;2023-07-09T01:25:26;101697.00;;;29.50
20736;BMP180;10528;52.124;5.196;2023-07-09T01:27:54;101698.00;;;29.50
20736;BMP180;10528;52.124;5.196;2023-07-09T01:30:36;101694.00;;;29.40
20736;BMP180;10528;52.124;5.196;2023-07-09T01:33:05;101687.00;;;29.40
20736;BMP180;10528;52.124;5.196;2023-07-09T01:35:37;101700.00;;;29.40
20736;BMP180;10528;52.124;5.196;2023-07-09T01:38:04;101697.00;;;29.40
20736;BMP180;10528;52.124;5.196;2023-07-09T01:40:35;101707.00;;;29.30
20736;BMP180;10528;52.124;5.196;2023-07-09T01:43:05;101695.00;;;29.30
20736;BMP180;10528;52.124;5.196;2023-07-09T01:45:36;101700.00;;;29.30
20736;BMP180;10528;52.124;5.196;2023-07-09T01:48:05;101709.00;;;29.30
20736;BMP180;10528;52.124;5.196;2023-07-09T01:50:33;101704.00;;;29.20
20736;BMP180;10528;52.124;5.196;2023-07-09T01:53:01;101692.00;;;29.20
20736;BMP180;10528;52.124;5.196;2023-07-09T01:55:29;101703.00;;;29.20
20736;BMP180;10528;52.124;5.196;2023-07-09T01:57:57;101703.00;;;29.20
20736;BMP180;10528;52.124;5.196;2023-07-09T02:00:24;101701.00;;;29.10
20736;BMP180;10528;52.124;5.196;2023-07-09T02:02:51;101709.00;;;29.10
20736;BMP180;10528;52.124;5.196;2023-07-09T02:05:20;101705.00;;;29.10
20736;BMP180;10528;52.124;5.196;2023-07-09T02:07:47;101705.00;;;29.10
20736;BMP180;10528;52.124;5.196;2023-07-09T02:10:17;101699.00;;;29.00
20736;BMP180;10528;52.124;5.196;2023-07-09T02:12:46;101707.00;;;29.00
20736;BMP180;10528;52.124;5.196;2023-07-09T02:15:14;101708.00;;;29.00
20736;BMP180;10528;52.124;5.196;2023-07-09T02:17:43;101703.00;;;29.00
20736;BMP180;10528;52.124;5.196;2023-07-09T02:20:12;101696.00;;;29.00
20736;BMP180;10528;52.124;5.196;2023-07-09T02:22:40;101703.00;;;29.00
20736;BMP180;10528;52.124;5.196;2023-07-09T02:25:08;101706.00;;;28.90
20736;BMP180;10528;52.124;5.196;2023-07-09T02:27:36;101705.00;;;28.90
20736;BMP180;10528;52.124;5.196;2023-07-09T02:30:06;101707.00;;;28.90
20736;BMP180;10528;52.124;5.196;2023-07-09T02:32:33;101705.00;;;28.90
20736;BMP180;10528;52.124;5.196;2023-07-09T02:35:01;101708.00;;;28.80
20736;BMP180;10528;52.124;5.196;2023-07-09T02:37:28;101703.00;;;28.80
20736;BMP180;10528;52.124;5.196;2023-07-09T02:39:55;101703.00;;;28.80
20736;BMP180;10528;52.124;5.196;2023-07-09T02:42:23;101691.00;;;28.80
20736;BMP180;10528;52.124;5.196;2023-07-09T02:44:51;101691.00;;;28.70
20736;BMP180;10528;52.124;5.196;2023-07-09T02:47:19;101695.00;;;28.70
20736;BMP180;10528;52.124;5.196;2023-07-09T02:49:48;101695.00;;;28.70
20736;BMP180;10528;52.124;5.196;2023-07-09T02:52:15;101686.00;;;28.70
20736;BMP180;10528;52.124;5.196;2023-07-09T02:54:42;101695.00;;;28.70
20736;BMP180;10528;52.124;5.196;2023-07-09T02:57:09;101698.00;;;28.70
20736;BMP180;10528;52.124;5.196;2023-07-09T02:59:36;101704.00;;;28.60
20736;BMP180;10528;52.124;5.196;2023-07-09T03:02:04;101703.00;;;28.60
20736;BMP180;10528;52.124;5.196;2023-07-09T03:04:31;101705.00;;;28.60
20736;BMP180;10528;52.124;5.196;2023-07-09T03:06:58;101699.00;;;28.60
20736;BMP180;10528;52.124;5.196;2023-07-09T03:09:29;101701.00;;;28.60
20736;BMP180;10528;52.124;5.196;2023-07-09T03:11:56;101702.00;;;28.60
20736;BMP180;10528;52.124;5.196;2023-07-09T03:14:23;101701.00;;;28.50
20736;BMP180;10528;52.124;5.196;2023-07-09T03:16:50;101693.00;;;28.50
20736;BMP180;10528;52.124;5.196;2023-07-09T03:19:19;101702.00;;;28.50
20736;BMP180;10528;52.124;5.196;2023-07-09T03:21:46;101708.00;;;28.50
20736;BMP180;10528;52.124;5.196;2023-07-09T03:24:13;101710.00;;;28.50
20736;BMP180;10528;52.124;5.196;2023-07-09T03:26:41;101694.00;;;28.40
20736;BMP180;10528;52.124;5.196;2023-07-09T03:29:08;101696.00;;;28.40
20736;BMP180;10528;52.124;5.196;2023-07-09T03:31:35;101710.00;;;28.40
20736;BMP180;10528;52.124;5.196;2023-07-09T03:34:02;101705.00;;;28.40
20736;BMP180;10528;52.124;5.196;2023-07-09T03:36:30;101696.00;;;28.40
20736;BMP180;10528;52.124;5.196;2023-07-09T03:38:57;101708.00;;;28.40
20736;BMP180;10528;52.124;5.196;2023-07-09T03:41:24;101706.00;;;28.40
20736;BMP180;10528;52.124;5.196;2023-07-09T03:43:51;101708.00;;;28.40
20736;BMP180;10528;52.124;5.196;2023-07-09T03:46:20;101707.00;;;28.30
20736;BMP180;10528;52.124;5.196;2023-07-09T03:48:47;101708.00;;;28.30
20736;BMP180;10528;52.124;5.196;2023-07-09T03:51:14;101719.00;;;28.30
20736;BMP180;10528;52.124;5.196;2023-07-09T03:53:41;101725.00;;;28.30
20736;BMP180;10528;52.124;5.196;2023-07-09T03:56:08;101727.00;;;28.30
20736;BMP180;10528;52.124;5.196;2023-07-09T03:58:35;101726.00;;;28.30
20736;BMP180;10528;52.124;5.196;2023-07-09T04:01:02;101719.00;;;28.30
20736;BMP180;10528;52.124;5.196;2023-07-09T04:03:30;101718.00;;;28.30
20736;BMP180;10528;52.124;5.196;2023-07-09T04:05:57;101719.00;;;28.30
20736;BMP180;10528;52.124;5.196;2023-07-09T04:08:24;101717.00;;;28.30
20736;BMP180;10528;52.124;5.196;2023-07-09T04:11:00;101711.00;;;28.30
20736;BMP180;10528;52.124;5.196;2023-07-09T04:13:28;101712.00;;;28.30
20736;BMP180;10528;52.124;5.196;2023-07-09T04:15:56;101719.00;;;28.30
20736;BMP180;10528;52.124;5.196;2023-07-09T04:18:23;101720.00;;;28.30
20736;BMP180;10528;52.124;5.196;2023-07-09T04:20:52;101724.00;;;28.30
20736;BMP180;10528;52.124;5.196;2023-07-09T04:23:20;101727.00;;;28.30
20736;BMP180;10528;52.124;5.196;2023-07-09T04:25:47;101727.00;;;28.40
20736;BMP180;10528;52.124;5.196;2023-07-09T04:28:15;101720.00;;;28.40
20736;BMP180;10528;52.124;5.196;2023-07-09T04:30:50;101717.00;;;28.40
20736;BMP180;10528;52.124;5.196;2023-07-09T04:33:19;101722.00;;;28.40
20736;BMP180;10528;52.124;5.196;2023-07-09T04:35:48;101728.00;;;28.50
20736;BMP180;10528;52.124;5.196;2023-07-09T04:38:16;101722.00;;;28.50
20736;BMP180;10528;52.124;5.196;2023-07-09T04:40:43;101719.00;;;28.50
20736;BMP180;10528;52.124;5.196;2023-07-09T04:43:10;101716.00;;;28.60
20736;BMP180;10528;52.124;5.196;2023-07-09T04:45:37;101720.00;;;28.60
20736;BMP180;10528;52.124;5.196;2023-07-09T04:48:05;101717.00;;;28.60
20736;BMP180;10528;52.124;5.196;2023-07-09T04:50:33;101717.00;;;28.70
20736;BMP180;10528;52.124;5.196;2023-07-09T04:53:00;101711.00;;;28.70
20736;BMP180;10528;52.124;5.196;2023-07-09T04:55:27;101707.00;;;28.80
20736;BMP180;10528;52.124;5.196;2023-07-09T04:57:55;101707.00;;;28.80
20736;BMP180;10528;52.124;5.196;2023-07-09T05:00:22;101710.00;;;28.90
20736;BMP180;10528;52.124;5.196;2023-07-09T05:02:49;101711.00;;;29.00
20736;BMP180;10528;52.124;5.196;2023-07-09T05:05:16;101715.00;;;29.00
20736;BMP180;10528;52.124;5.196;2023-07-09T05:07:43;101710.00;;;29.10
20736;BMP180;10528;52.124;5.196;2023-07-09T05:10:10;101715.00;;;29.20
20736;BMP180;10528;52.124;5.196;2023-07-09T05:12:49;101705.00;;;29.30
20736;BMP180;10528;52.124;5.196;2023-07-09T05:15:19;101708.00;;;29.40
20736;BMP180;10528;52.124;5.196;2023-07-09T05:17:46;101710.00;;;29.50
20736;BMP180;10528;52.124;5.196;2023-07-09T05:20:15;101709.00;;;29.60
20736;BMP180;10528;52.124;5.196;2023-07-09T05:22:42;101703.00;;;29.70
20736;BMP180;10528;52.124;5.196;2023-07-09T05:25:10;101717.00;;;29.80
20736;BMP180;10528;52.124;5.196;2023-07-09T05:27:37;101711.00;;;29.90
20736;BMP180;10528;52.124;5.196;2023-07-09T05:30:05;101706.00;;;30.00
20736;BMP180;10528;52.124;5.196;2023-07-09T05:32:33;101705.00;;;30.20
20736;BMP180;10528;52.124;5.196;2023-07-09T05:35:00;101706.00;;;30.30
20736;BMP180;10528;52.124;5.196;2023-07-09T05:37:28;101709.00;;;30.50
20736;BMP180;10528;52.124;5.196;2023-07-09T05:39:55;101696.00;;;30.80
20736;BMP180;10528;52.124;5.196;2023-07-09T05:42:22;101711.00;;;31.10
20736;BMP180;10528;52.124;5.196;2023-07-09T05:44:49;101716.00;;;31.30
20736;BMP180;10528;52.124;5.196;2023-07-09T05:47:16;101712.00;;;31.50
20736;BMP180;10528;52.124;5.196;2023-07-09T05:49:43;101714.00;;;31.70
20736;BMP180;10528;52.124;5.196;2023-07-09T05:52:10;101716.00;;;32.00
20736;BMP180;10528;52.124;5.196;2023-07-09T05:54:37;101707.00;;;32.10
20736;BMP180;10528;52.124;5.196;2023-07-09T05:57:04;101717.00;;;32.30
20736;BMP180;10528;52.124;5.196;2023-07-09T05:59:31;101715.00;;;32.40
20736;BMP180;10528;52.124;5.196;2023-07-09T06:01:58;101721.00;;;32.60
20736;BMP180;10528;52.124;5.196;2023-07-09T06:04:27;101724.00;;;32.70
20736;BMP180;10528;52.124;5.196;2023-07-09T06:06:54;101723.00;;;32.90
20736;BMP180;10528;52.124;5.196;2023-07-09T06:09:21;101724.00;;;33.00
20736;BMP180;10528;52.124;5.196;2023-07-09T06:11:48;101738.00;;;33.20
20736;BMP180;10528;52.124;5.196;2023-07-09T06:14:15;101730.00;;;33.40
20736;BMP180;10528;52.124;5.196;2023-07-09T06:16:43;101734.00;;;33.60
20736;BMP180;10528;52.124;5.196;2023-07-09T06:19:11;101730.00;;;33.90
20736;BMP180;10528;52.124;5.196;2023-07-09T06:21:39;101734.00;;;34.10
20736;BMP180;10528;52.124;5.196;2023-07-09T06:24:08;101747.00;;;34.40
20736;BMP180;10528;52.124;5.196;2023-07-09T06:26:35;101752.00;;;34.70
20736;BMP180;10528;52.124;5.196;2023-07-09T06:29:02;101743.00;;;34.90
20736;BMP180;10528;52.124;5.196;2023-07-09T06:31:30;101740.00;;;35.10
20736;BMP180;10528;52.124;5.196;2023-07-09T06:33:59;101749.00;;;35.30
20736;BMP180;10528;52.124;5.196;2023-07-09T06:36:26;101745.00;;;35.60
20736;BMP180;10528;52.124;5.196;2023-07-09T06:38:53;101747.00;;;35.90
20736;BMP180;10528;52.124;5.196;2023-07-09T06:41:20;101754.00;;;36.30
20736;BMP180;10528;52.124;5.196;2023-07-09T06:43:47;101756.00;;;36.60
20736;BMP180;10528;52.124;5.196;2023-07-09T06:46:15;101759.00;;;37.00
20736;BMP180;10528;52.124;5.196;2023-07-09T06:48:42;101759.00;;;37.40
20736;BMP180;10528;52.124;5.196;2023-07-09T06:51:09;101751.00;;;37.60
20736;BMP180;10528;52.124;5.196;2023-07-09T06:53:36;101752.00;;;37.90
20736;BMP180;10528;52.124;5.196;2023-07-09T06:56:03;101753.00;;;38.10
20736;BMP180;10528;52.124;5.196;2023-07-09T06:58:32;101753.00;;;38.40
20736;BMP180;10528;52.124;5.196;2023-07-09T07:01:02;101755.00;;;38.60
20736;BMP180;10528;52.124;5.196;2023-07-09T07:03:33;101755.00;;;38.80
20736;BMP180;10528;52.124;5.196;2023-07-09T07:06:01;101756.00;;;39.10
20736;BMP180;10528;52.124;5.196;2023-07-09T07:08:29;101754.00;;;39.30
20736;BMP180;10528;52.124;5.196;2023-07-09T07:11:00;101748.00;;;39.50
20736;BMP180;10528;52.124;5.196;2023-07-09T07:13:34;101752.00;;;39.70
20736;BMP180;10528;52.124;5.196;2023-07-09T07:16:05;101767.00;;;40.00
20736;BMP180;10528;52.124;5.196;2023-07-09T07:18:33;101766.00;;;40.20
20736;BMP180;10528;52.124;5.196;2023-07-09T07:21:01;101766.00;;;40.40
20736;BMP180;10528;52.124;5.196;2023-07-09T07:23:29;101768.00;;;40.60
20736;BMP180;10528;52.124;5.196;2023-07-09T07:25:56;101770.00;;;40.80
20736;BMP180;10528;52.124;5.196;2023-07-09T07:28:23;101777.00;;;41.10
20736;BMP180;10528;52.124;5.196;2023-07-09T07:31:07;101768.00;;;41.20
20736;BMP180;10528;52.124;5.196;2023-07-09T07:33:36;101776.00;;;41.40
20736;BMP180;10528;52.124;5.196;2023-07-09T07:36:07;101783.00;;;41.50
20736;BMP180;10528;52.124;5.196;2023-07-09T07:38:37;101785.00;;;41.80
20736;BMP180;10528;52.124;5.196;2023-07-09T07:41:04;101785.00;;;41.90
20736;BMP180;10528;52.124;5.196;2023-07-09T07:43:31;101785.00;;;42.10
20736;BMP180;10528;52.124;5.196;2023-07-09T07:45:58;101786.00;;;42.20
20736;BMP180;10528;52.124;5.196;2023-07-09T07:48:25;101782.00;;;42.30
20736;BMP180;10528;52.124;5.196;2023-07-09T07:50:59;101796.00;;;42.40
20736;BMP180;10528;52.124;5.196;2023-07-09T07:53:28;101792.00;;;42.40
20736;BMP180;10528;52.124;5.196;2023-07-09T07:55:57;101789.00;;;42.40
20736;BMP180;10528;52.124;5.196;2023-07-09T07:58:24;101783.00;;;42.50
20736;BMP180;10528;52.124;5.196;2023-07-09T08:00:56;101783.00;;;42.50
20736;BMP180;10528;52.124;5.196;2023-07-09T08:03:24;101778.00;;;42.50
20736;BMP180;10528;52.124;5.196;2023-07-09T08:05:52;101787.00;;;42.50
20736;BMP180;10528;52.124;5.196;2023-07-09T08:08:19;101787.00;;;42.60
20736;BMP180;10528;52.124;5.196;2023-07-09T08:10:46;101780.00;;;42.60
20736;BMP180;10528;52.124;5.196;2023-07-09T08:13:13;101786.00;;;42.70
20736;BMP180;10528;52.124;5.196;2023-07-09T08:15:40;101784.00;;;42.70
20736;BMP180;10528;52.124;5.196;2023-07-09T08:18:07;101784.00;;;42.60
20736;BMP180;10528;52.124;5.196;2023-07-09T08:20:34;101778.00;;;42.50
20736;BMP180;10528;52.124;5.196;2023-07-09T08:23:02;101778.00;;;42.50
20736;BMP180;10528;52.124;5.196;2023-07-09T08:25:29;101774.00;;;42.40
20736;BMP180;10528;52.124;5.196;2023-07-09T08:27:56;101778.00;;;42.30
20736;BMP180;10528;52.124;5.196;2023-07-09T08:30:22;101783.00;;;42.20
20736;BMP180;10528;52.124;5.196;2023-07-09T08:32:49;101771.00;;;42.10
20736;BMP180;10528;52.124;5.196;2023-07-09T08:35:16;101770.00;;;41.90
20736;BMP180;10528;52.124;5.196;2023-07-09T08:37:46;101759.00;;;41.80
20736;BMP180;10528;52.124;5.196;2023-07-09T08:40:16;101767.00;;;41.70
20736;BMP180;10528;52.124;5.196;2023-07-09T08:42:46;101770.00;;;41.50
20736;BMP180;10528;52.124;5.196;2023-07-09T08:48:37;101764.00;;;41.10
20736;BMP180;10528;52.124;5.196;2023-07-09T08:53:57;101768.00;;;40.70
20736;BMP180;10528;52.124;5.196;2023-07-09T08:56:26;101760.00;;;40.60
20736;BMP180;10528;52.124;5.196;2023-07-09T08:58:59;101763.00;;;40.40
20736;BMP180;10528;52.124;5.196;2023-07-09T09:01:51;101748.00;;;40.20
20736;BMP180;10528;52.124;5.196;2023-07-09T09:04:28;101753.00;;;40.00
20736;BMP180;10528;52.124;5.196;2023-07-09T09:07:18;101746.00;;;39.90
20736;BMP180;10528;52.124;5.196;2023-07-09T09:09:56;101756.00;;;39.80
20736;BMP180;10528;52.124;5.196;2023-07-09T09:12:44;101758.00;;;39.60
20736;BMP180;10528;52.124;5.196;2023-07-09T09:15:20;101750.00;;;39.50
20736;BMP180;10528;52.124;5.196;2023-07-09T09:17:54;101756.00;;;39.30
20736;BMP180;10528;52.124;5.196;2023-07-09T09:20:23;101760.00;;;39.20
20736;BMP180;10528;52.124;5.196;2023-07-09T09:25:37;101740.00;;;38.90
20736;BMP180;10528;52.124;5.196;2023-07-09T09:28:08;101754.00;;;38.80
20736;BMP180;10528;52.124;5.196;2023-07-09T09:30:34;101744.00;;;38.70
20736;BMP180;10528;52.124;5.196;2023-07-09T09:33:07;101743.00;;;38.60
20736;BMP180;10528;52.124;5.196;2023-07-09T09:35:42;101740.00;;;38.50
20736;BMP180;10528;52.124;5.196;2023-07-09T09:38:21;101737.00;;;38.40
20736;BMP180;10528;52.124;5.196;2023-07-09T09:40:49;101733.00;;;38.40
20736;BMP180;10528;52.124;5.196;2023-07-09T09:43:19;101736.00;;;38.30
20736;BMP180;10528;52.124;5.196;2023-07-09T09:45:49;101736.00;;;38.30
20736;BMP180;10528;52.124;5.196;2023-07-09T09:48:31;101741.00;;;38.20
20736;BMP180;10528;52.124;5.196;2023-07-09T09:51:03;101741.00;;;38.20
20736;BMP180;10528;52.124;5.196;2023-07-09T09:53:39;101741.00;;;38.10
20736;BMP180;10528;52.124;5.196;2023-07-09T09:56:17;101723.00;;;38.00
20736;BMP180;10528;52.124;5.196;2023-07-09T09:58:45;101731.00;;;37.90
20736;BMP180;10528;52.124;5.196;2023-07-09T10:01:17;101730.00;;;37.90
20736;BMP180;10528;52.124;5.196;2023-07-09T10:03:51;101729.00;;;37.80
20736;BMP180;10528;52.124;5.196;2023-07-09T10:06:36;101733.00;;;37.80
20736;BMP180;10528;52.124;5.196;2023-07-09T10:09:47;101730.00;;;37.90
20736;BMP180;10528;52.124;5.196;2023-07-09T10:12:46;101732.00;;;37.80
20736;BMP180;10528;52.124;5.196;2023-07-09T10:15:48;101725.00;;;37.80
20736;BMP180;10528;52.124;5.196;2023-07-09T10:24:55;101723.00;;;37.80
20736;BMP180;10528;52.124;5.196;2023-07-09T10:28:04;101727.00;;;37.80
20736;BMP180;10528;52.124;5.196;2023-07-09T10:33:45;101733.00;;;37.70
20736;BMP180;10528;52.124;5.196;2023-07-09T10:36:57;101747.00;;;37.70
20736;BMP180;10528;52.124;5.196;2023-07-09T10:39:34;101748.00;;;37.70
20736;BMP180;10528;52.124;5.196;2023-07-09T10:42:02;101752.00;;;37.70
20736;BMP180;10528;52.124;5.196;2023-07-09T10:44:36;101744.00;;;37.70
20736;BMP180;10528;52.124;5.196;2023-07-09T10:47:34;101755.00;;;37.80
20736;BMP180;10528;52.124;5.196;2023-07-09T10:50:14;101748.00;;;37.90
20736;BMP180;10528;52.124;5.196;2023-07-09T10:52:46;101742.00;;;37.90
20736;BMP180;10528;52.124;5.196;2023-07-09T10:55:59;101741.00;;;38.00
20736;BMP180;10528;52.124;5.196;2023-07-09T10:58:35;101741.00;;;38.00
20736;BMP180;10528;52.124;5.196;2023-07-09T11:01:04;101746.00;;;38.10
20736;BMP180;10528;52.124;5.196;2023-07-09T11:03:55;101746.00;;;38.00
20736;BMP180;10528;52.124;5.196;2023-07-09T11:06:38;101734.00;;;38.10
20736;BMP180;10528;52.124;5.196;2023-07-09T11:09:32;101741.00;;;38.10
20736;BMP180;10528;52.124;5.196;2023-07-09T11:12:14;101726.00;;;38.10
20736;BMP180;10528;52.124;5.196;2023-07-09T11:14:50;101734.00;;;38.10
20736;BMP180;10528;52.124;5.196;2023-07-09T11:17:21;101734.00;;;38.20
20736;BMP180;10528;52.124;5.196;2023-07-09T11:20:07;101743.00;;;38.10
20736;BMP180;10528;52.124;5.196;2023-07-09T11:22:39;101723.00;;;38.10
20736;BMP180;10528;52.124;5.196;2023-07-09T11:25:42;101721.00;;;38.10
20736;BMP180;10528;52.124;5.196;2023-07-09T11:28:10;101719.00;;;38.10
20736;BMP180;10528;52.124;5.196;2023-07-09T11:30:53;101718.00;;;38.10
20736;BMP180;10528;52.124;5.196;2023-07-09T11:33:27;101715.00;;;38.10
20736;BMP180;10528;52.124;5.196;2023-07-09T11:36:25;101716.00;;;38.10
20736;BMP180;10528;52.124;5.196;2023-07-09T11:38:53;101724.00;;;38.10
20736;BMP180;10528;52.124;5.196;2023-07-09T11:41:38;101719.00;;;38.20
20736;BMP180;10528;52.124;5.196;2023-07-09T11:44:27;101717.00;;;38.20
20736;BMP180;10528;52.124;5.196;2023-07-09T11:47:25;101716.00;;;38.20
20736;BMP180;10528;52.124;5.196;2023-07-09T11:49:58;101723.00;;;38.20
20736;BMP180;10528;52.124;5.196;2023-07-09T11:52:39;101737.00;;;38.20
20736;BMP180;10528;52.124;5.196;2023-07-09T11:55:38;101738.00;;;38.30
20736;BMP180;10528;52.124;5.196;2023-07-09T11:58:09;101741.00;;;38.30
20736;BMP180;10528;52.124;5.196;2023-07-09T12:00:47;101758.00;;;38.30
20736;BMP180;10528;52.124;5.196;2023-07-09T12:03:32;101752.00;;;38.20
20736;BMP180;10528;52.124;5.196;2023-07-09T12:06:03;101751.00;;;38.20
20736;BMP180;10528;52.124;5.196;2023-07-09T12:08:40;101765.00;;;38.20
20736;BMP180;10528;52.124;5.196;2023-07-09T12:11:19;101769.00;;;38.20
20736;BMP180;10528;52.124;5.196;2023-07-09T12:13:47;101758.00;;;38.20
20736;BMP180;10528;52.124;5.196;2023-07-09T12:16:45;101768.00;;;38.20
20736;BMP180;10528;52.124;5.196;2023-07-09T12:19:17;101780.00;;;38.30
20736;BMP180;10528;52.124;5.196;2023-07-09T12:21:53;101776.00;;;38.20
20736;BMP180;10528;52.124;5.196;2023-07-09T12:24:26;101778.00;;;38.20
20736;BMP180;10528;52.124;5.196;2023-07-09T12:26:59;101772.00;;;38.10
20736;BMP180;10528;52.124;5.196;2023-07-09T12:29:34;101790.00;;;38.10
20736;BMP180;10528;52.124;5.196;2023-07-09T12:32:15;101786.00;;;38.00
20736;BMP180;10528;52.124;5.196;2023-07-09T12:34:49;101801.00;;;38.00
20736;BMP180;10528;52.124;5.196;2023-07-09T12:37:18;101817.00;;;37.90
20736;BMP180;10528;52.124;5.196;2023-07-09T12:39:45;101819.00;;;37.80
20736;BMP180;10528;52.124;5.196;2023-07-09T12:42:23;101809.00;;;37.70
20736;BMP180;10528;52.124;5.196;2023-07-09T12:44:51;101809.00;;;37.60
20736;BMP180;10528;52.124;5.196;2023-07-09T12:47:23;101802.00;;;37.50
20736;BMP180;10528;52.124;5.196;2023-07-09T12:50:00;101789.00;;;37.50
20736;BMP180;10528;52.124;5.196;2023-07-09T12:52:27;101789.00;;;37.40
20736;BMP180;10528;52.124;5.196;2023-07-09T12:55:00;101809.00;;;37.40
20736;BMP180;10528;52.124;5.196;2023-07-09T12:57:29;101810.00;;;37.30
20736;BMP180;10528;52.124;5.196;2023-07-09T12:59:57;101817.00;;;37.30
20736;BMP180;10528;52.124;5.196;2023-07-09T13:02:28;101801.00;;;37.20
20736;BMP180;10528;52.124;5.196;2023-07-09T13:05:05;101793.00;;;37.10
20736;BMP180;10528;52.124;5.196;2023-07-09T13:07:37;101803.00;;;37.10
20736;BMP180;10528;52.124;5.196;2023-07-09T13:10:17;101797.00;;;37.00
20736;BMP180;10528;52.124;5.196;2023-07-09T13:12:55;101805.00;;;36.90
20736;BMP180;10528;52.124;5.196;2023-07-09T13:15:38;101803.00;;;36.90
20736;BMP180;10528;52.124;5.196;2023-07-09T13:18:10;101810.00;;;36.90
20736;BMP180;10528;52.124;5.196;2023-07-09T13:20:44;101798.00;;;36.90
20736;BMP180;10528;52.124;5.196;2023-07-09T13:23:19;101792.00;;;36.90
20736;BMP180;10528;52.124;5.196;2023-07-09T13:25:47;101801.00;;;36.90
20736;BMP180;10528;52.124;5.196;2023-07-09T13:28:28;101804.00;;;36.70
20736;BMP180;10528;52.124;5.196;2023-07-09T13:33:38;101818.00;;;36.70
20736;BMP180;10528;52.124;5.196;2023-07-09T13:36:05;101815.00;;;36.60
20736;BMP180;10528;52.124;5.196;2023-07-09T13:38:33;101817.00;;;36.50
20736;BMP180;10528;52.124;5.196;2023-07-09T13:41:13;101823.00;;;36.40
20736;BMP180;10528;52.124;5.196;2023-07-09T13:43:45;101811.00;;;36.30
20736;BMP180;10528;52.124;5.196;2023-07-09T13:46:13;101805.00;;;36.20
20736;BMP180;10528;52.124;5.196;2023-07-09T13:48:43;101816.00;;;36.10
20736;BMP180;10528;52.124;5.196;2023-07-09T13:51:18;101810.00;;;35.90
20736;BMP180;10528;52.124;5.196;2023-07-09T13:53:51;101801.00;;;35.80
20736;BMP180;10528;52.124;5.196;2023-07-09T13:56:20;101815.00;;;35.70
20736;BMP180;10528;52.124;5.196;2023-07-09T13:58:47;101811.00;;;35.50
20736;BMP180;10528;52.124;5.196;2023-07-09T14:01:21;101818.00;;;35.30
20736;BMP180;10528;52.124;5.196;2023-07-09T14:03:49;101821.00;;;35.20
20736;BMP180;10528;52.124;5.196;2023-07-09T14:06:18;101823.00;;;35.00
20736;BMP180;10528;52.124;5.196;2023-07-09T14:08:45;101822.00;;;34.90
20736;BMP180;10528;52.124;5.196;2023-07-09T14:11:16;101802.00;;;34.60
20736;BMP180;10528;52.124;5.196;2023-07-09T14:13:44;101788.00;;;34.60
20736;BMP180;10528;52.124;5.196;2023-07-09T14:16:12;101782.00;;;34.50
20736;BMP180;10528;52.124;5.196;2023-07-09T14:18:40;101775.00;;;34.30
20736;BMP180;10528;52.124;5.196;2023-07-09T14:21:18;101783.00;;;34.30
20736;BMP180;10528;52.124;5.196;2023-07-09T14:23:45;101796.00;;;34.20
20736;BMP180;10528;52.124;5.196;2023-07-09T14:26:12;101788.00;;;34.10
20736;BMP180;10528;52.124;5.196;2023-07-09T14:28:39;101790.00;;;34.00
20736;BMP180;10528;52.124;5.196;2023-07-09T14:31:27;101780.00;;;33.90
20736;BMP180;10528;52.124;5.196;2023-07-09T14:34:13;101774.00;;;33.90
20736;BMP180;10528;52.124;5.196;2023-07-09T14:36:42;101769.00;;;33.80
20736;BMP180;10528;52.124;5.196;2023-07-09T14:39:10;101780.00;;;33.80
20736;BMP180;10528;52.124;5.196;2023-07-09T14:41:38;101784.00;;;33.60
20736;BMP180;10528;52.124;5.196;2023-07-09T14:46:50;102009.00;;;33.50
20736;BMP180;10528;52.124;5.196;2023-07-09T14:49:18;102046.00;;;33.50